sensor_id;sensor_type;location;lat;lon;timestamp;pressure;altitude;pressure_sealevel;temperature;humidity
76726;BME280;65651;53.154;17.916;2022-12-20T00:01:25;101385.84;;;0.71;87.25
76726;BME280;65651;53.154;17.916;2022-12-20T00:03:56;101382.28;;;0.71;87.25
76726;BME280;65651;53.154;17.916;2022-12-20T00:06:25;101382.70;;;0.74;87.23
76726;BME280;65651;53.154;17.916;2022-12-20T00:08:58;101384.09;;;0.74;87.22
76726;BME280;65651;53.154;17.916;2022-12-20T00:11:28;101381.20;;;0.76;87.34
76726;BME280;65651;53.154;17.916;2022-12-20T00:13:56;101376.58;;;0.76;87.31
76726;BME280;65651;53.154;17.916;2022-12-20T00:16:26;101371.09;;;0.76;87.17
76726;BME280;65651;53.154;17.916;2022-12-20T00:18:56;101367.18;;;0.77;87.31
76726;BME280;65651;53.154;17.916;2022-12-20T00:21:24;101363.10;;;0.77;87.51
76726;BME280;65651;53.154;17.916;2022-12-20T00:23:52;101367.76;;;0.76;87.55
76726;BME280;65651;53.154;17.916;2022-12-20T00:26:21;101369.74;;;0.75;87.60
76726;BME280;65651;53.154;17.916;2022-12-20T00:28:49;101372.25;;;0.74;87.64
76726;BME280;65651;53.154;17.916;2022-12-20T00:31:18;101369.24;;;0.75;87.78
76726;BME280;65651;53.154;17.916;2022-12-20T00:33:47;101373.48;;;0.75;87.75
76726;BME280;65651;53.154;17.916;2022-12-20T00:36:15;101377.69;;;0.75;87.95
76726;BME280;65651;53.154;17.916;2022-12-20T00:38:46;101374.31;;;0.76;87.58
76726;BME280;65651;53.154;17.916;2022-12-20T00:41:17;101374.61;;;0.77;87.81
76726;BME280;65651;53.154;17.916;2022-12-20T00:43:46;101367.70;;;0.77;87.90
76726;BME280;65651;53.154;17.916;2022-12-20T00:46:20;101361.65;;;0.78;87.77
76726;BME280;65651;53.154;17.916;2022-12-20T00:48:50;101359.84;;;0.79;87.94
76726;BME280;65651;53.154;17.916;2022-12-20T00:51:23;101356.79;;;0.81;87.66
76726;BME280;65651;53.154;17.916;2022-12-20T00:53:51;101361.14;;;0.82;87.70
76726;BME280;65651;53.154;17.916;2022-12-20T00:56:19;101354.73;;;0.84;87.88
76726;BME280;65651;53.154;17.916;2022-12-20T00:58:46;101355.91;;;0.85;87.83
76726;BME280;65651;53.154;17.916;2022-12-20T01:01:26;101347.01;;;0.86;87.86
76726;BME280;65651;53.154;17.916;2022-12-20T01:03:54;101343.77;;;0.88;87.87
76726;BME280;65651;53.154;17.916;2022-12-20T01:06:23;101347.93;;;0.89;87.86
76726;BME280;65651;53.154;17.916;2022-12-20T01:08:53;101352.79;;;0.91;87.98
76726;BME280;65651;53.154;17.916;2022-12-20T01:11:29;101361.41;;;0.92;87.73
76726;BME280;65651;53.154;17.916;2022-12-20T01:14:00;101365.07;;;0.94;88.00
76726;BME280;65651;53.154;17.916;2022-12-20T01:16:35;101354.57;;;0.95;87.70
76726;BME280;65651;53.154;17.916;2022-12-20T01:19:03;101343.21;;;0.96;87.77
76726;BME280;65651;53.154;17.916;2022-12-20T01:21:31;101331.50;;;0.97;87.81
76726;BME280;65651;53.154;17.916;2022-12-20T01:23:58;101332.89;;;0.98;87.84
76726;BME280;65651;53.154;17.916;2022-12-20T01:26:27;101332.90;;;0.97;87.69
76726;BME280;65651;53.154;17.916;2022-12-20T01:28:57;101322.96;;;0.99;87.61
76726;BME280;65651;53.154;17.916;2022-12-20T01:31:26;101316.04;;;0.99;87.84
76726;BME280;65651;53.154;17.916;2022-12-20T01:33:54;101315.34;;;0.99;87.77
76726;BME280;65651;53.154;17.916;2022-12-20T01:36:24;101313.42;;;0.99;87.81
76726;BME280;65651;53.154;17.916;2022-12-20T01:41:28;101298.76;;;0.98;87.96
76726;BME280;65651;53.154;17.916;2022-12-20T01:46:45;101312.38;;;0.98;87.85
76726;BME280;65651;53.154;17.916;2022-12-20T01:51:51;101318.38;;;0.98;87.74
76726;BME280;65651;53.154;17.916;2022-12-20T01:54:24;101322.94;;;0.99;87.90
76726;BME280;65651;53.154;17.916;2022-12-20T01:56:59;101314.95;;;1.00;87.60
76726;BME280;65651;53.154;17.916;2022-12-20T01:59:31;101310.67;;;1.01;87.73
76726;BME280;65651;53.154;17.916;2022-12-20T02:02:02;101309.05;;;1.01;87.72
76726;BME280;65651;53.154;17.916;2022-12-20T02:04:31;101309.90;;;1.02;87.80
76726;BME280;65651;53.154;17.916;2022-12-20T02:06:59;101307.41;;;1.02;87.68
76726;BME280;65651;53.154;17.916;2022-12-20T02:09:33;101309.36;;;1.02;87.72
76726;BME280;65651;53.154;17.916;2022-12-20T02:20:36;101304.57;;;0.99;87.72
76726;BME280;65651;53.154;17.916;2022-12-20T02:29:14;101293.61;;;0.99;87.74
76726;BME280;65651;53.154;17.916;2022-12-20T02:31:57;101292.65;;;1.00;87.56
76726;BME280;65651;53.154;17.916;2022-12-20T02:34:28;101294.52;;;1.02;87.69
76726;BME280;65651;53.154;17.916;2022-12-20T02:36:57;101295.34;;;1.03;87.62
76726;BME280;65651;53.154;17.916;2022-12-20T02:39:26;101297.37;;;1.06;87.78
76726;BME280;65651;53.154;17.916;2022-12-20T02:42:12;101298.69;;;1.08;87.53
76726;BME280;65651;53.154;17.916;2022-12-20T02:44:49;101290.48;;;1.09;87.69
76726;BME280;65651;53.154;17.916;2022-12-20T02:47:59;101285.50;;;1.10;87.57
76726;BME280;65651;53.154;17.916;2022-12-20T02:50:38;101281.41;;;1.11;87.50
76726;BME280;65651;53.154;17.916;2022-12-20T02:53:07;101286.45;;;1.13;87.64
76726;BME280;65651;53.154;17.916;2022-12-20T02:58:10;101288.27;;;1.15;87.48
76726;BME280;65651;53.154;17.916;2022-12-20T03:00:42;101291.23;;;1.16;87.50
76726;BME280;65651;53.154;17.916;2022-12-20T03:03:14;101287.50;;;1.17;87.34
76726;BME280;65651;53.154;17.916;2022-12-20T03:05:53;101287.44;;;1.18;87.28
76726;BME280;65651;53.154;17.916;2022-12-20T03:08:22;101298.33;;;1.20;87.29
76726;BME280;65651;53.154;17.916;2022-12-20T03:10:50;101304.56;;;1.23;87.47
76726;BME280;65651;53.154;17.916;2022-12-20T03:13:18;101305.56;;;1.24;87.45
76726;BME280;65651;53.154;17.916;2022-12-20T03:15:52;101304.42;;;1.26;87.38
76726;BME280;65651;53.154;17.916;2022-12-20T03:18:19;101302.90;;;1.28;87.37
76726;BME280;65651;53.154;17.916;2022-12-20T03:20:47;101300.54;;;1.29;87.23
76726;BME280;65651;53.154;17.916;2022-12-20T03:23:14;101296.95;;;1.30;87.26
76726;BME280;65651;53.154;17.916;2022-12-20T03:25:41;101289.14;;;1.31;87.29
76726;BME280;65651;53.154;17.916;2022-12-20T03:28:11;101274.23;;;1.32;87.21
76726;BME280;65651;53.154;17.916;2022-12-20T03:30:38;101273.21;;;1.35;87.38
76726;BME280;65651;53.154;17.916;2022-12-20T03:33:05;101273.70;;;1.37;87.42
76726;BME280;65651;53.154;17.916;2022-12-20T03:35:34;101274.89;;;1.37;87.21
76726;BME280;65651;53.154;17.916;2022-12-20T03:38:01;101277.50;;;1.38;87.18
76726;BME280;65651;53.154;17.916;2022-12-20T03:40:31;101278.75;;;1.38;87.12
76726;BME280;65651;53.154;17.916;2022-12-20T03:42:58;101284.46;;;1.37;86.96
76726;BME280;65651;53.154;17.916;2022-12-20T03:45:26;101287.95;;;1.38;87.13
76726;BME280;65651;53.154;17.916;2022-12-20T03:47:54;101297.23;;;1.39;87.18
76726;BME280;65651;53.154;17.916;2022-12-20T03:50:24;101286.27;;;1.40;86.91
76726;BME280;65651;53.154;17.916;2022-12-20T03:53:05;101286.02;;;1.41;87.05
76726;BME280;65651;53.154;17.916;2022-12-20T03:55:33;101282.24;;;1.43;87.19
76726;BME280;65651;53.154;17.916;2022-12-20T03:58:01;101284.89;;;1.43;87.10
76726;BME280;65651;53.154;17.916;2022-12-20T04:00:32;101281.20;;;1.42;87.08
76726;BME280;65651;53.154;17.916;2022-12-20T04:03:13;101280.52;;;1.42;86.96
76726;BME280;65651;53.154;17.916;2022-12-20T04:05:43;101275.59;;;1.41;87.03
76726;BME280;65651;53.154;17.916;2022-12-20T04:08:10;101273.37;;;1.40;87.11
76726;BME280;65651;53.154;17.916;2022-12-20T04:10:39;101266.96;;;1.37;87.02
76726;BME280;65651;53.154;17.916;2022-12-20T04:13:26;101268.50;;;1.34;87.11
76726;BME280;65651;53.154;17.916;2022-12-20T04:15:54;101272.27;;;1.32;86.94
76726;BME280;65651;53.154;17.916;2022-12-20T04:18:22;101273.80;;;1.30;87.16
76726;BME280;65651;53.154;17.916;2022-12-20T04:20:52;101275.46;;;1.29;87.01
76726;BME280;65651;53.154;17.916;2022-12-20T04:23:24;101279.45;;;1.26;87.01
76726;BME280;65651;53.154;17.916;2022-12-20T04:25:52;101276.55;;;1.24;87.20
76726;BME280;65651;53.154;17.916;2022-12-20T04:28:19;101277.17;;;1.22;87.02
76726;BME280;65651;53.154;17.916;2022-12-20T04:30:46;101271.66;;;1.19;87.05
76726;BME280;65651;53.154;17.916;2022-12-20T04:33:15;101271.73;;;1.17;87.10
76726;BME280;65651;53.154;17.916;2022-12-20T04:35:43;101279.89;;;1.17;87.19
76726;BME280;65651;53.154;17.916;2022-12-20T04:38:10;101276.85;;;1.18;87.03
76726;BME280;65651;53.154;17.916;2022-12-20T04:40:37;101282.14;;;1.18;86.99
76726;BME280;65651;53.154;17.916;2022-12-20T04:43:07;101290.18;;;1.20;87.13
76726;BME280;65651;53.154;17.916;2022-12-20T04:45:35;101294.52;;;1.21;87.12
76726;BME280;65651;53.154;17.916;2022-12-20T04:48:03;101299.23;;;1.24;87.10
76726;BME280;65651;53.154;17.916;2022-12-20T04:50:35;101298.39;;;1.26;87.05
76726;BME280;65651;53.154;17.916;2022-12-20T04:53:02;101295.83;;;1.28;86.98
76726;BME280;65651;53.154;17.916;2022-12-20T04:55:50;101291.67;;;1.30;86.98
76726;BME280;65651;53.154;17.916;2022-12-20T04:58:21;101288.60;;;1.31;87.01
76726;BME280;65651;53.154;17.916;2022-12-20T05:00:50;101286.79;;;1.32;87.07
76726;BME280;65651;53.154;17.916;2022-12-20T05:03:26;101282.02;;;1.32;87.00
76726;BME280;65651;53.154;17.916;2022-12-20T05:05:53;101277.16;;;1.33;86.87
76726;BME280;65651;53.154;17.916;2022-12-20T05:08:21;101274.66;;;1.34;86.95
76726;BME280;65651;53.154;17.916;2022-12-20T05:10:50;101277.80;;;1.35;86.97
76726;BME280;65651;53.154;17.916;2022-12-20T05:13:17;101272.08;;;1.37;86.99
76726;BME280;65651;53.154;17.916;2022-12-20T05:15:50;101265.14;;;1.38;86.79
76726;BME280;65651;53.154;17.916;2022-12-20T05:18:22;101267.43;;;1.38;86.72
76726;BME280;65651;53.154;17.916;2022-12-20T05:20:57;101266.40;;;1.37;86.74
76726;BME280;65651;53.154;17.916;2022-12-20T05:23:45;101263.16;;;1.39;86.75
76726;BME280;65651;53.154;17.916;2022-12-20T05:26:36;101262.20;;;1.40;86.79
76726;BME280;65651;53.154;17.916;2022-12-20T05:29:05;101258.08;;;1.41;86.83
76726;BME280;65651;53.154;17.916;2022-12-20T05:31:33;101256.52;;;1.41;86.78
76726;BME280;65651;53.154;17.916;2022-12-20T05:34:01;101254.71;;;1.41;86.59
76726;BME280;65651;53.154;17.916;2022-12-20T05:36:30;101255.98;;;1.41;86.52
76726;BME280;65651;53.154;17.916;2022-12-20T05:38:58;101246.75;;;1.41;86.71
76726;BME280;65651;53.154;17.916;2022-12-20T05:41:26;101247.48;;;1.41;86.61
76726;BME280;65651;53.154;17.916;2022-12-20T05:43:53;101250.34;;;1.40;86.76
76726;BME280;65651;53.154;17.916;2022-12-20T05:46:21;101247.55;;;1.39;86.64
76726;BME280;65651;53.154;17.916;2022-12-20T05:48:58;101258.36;;;1.39;86.76
76726;BME280;65651;53.154;17.916;2022-12-20T05:51:26;101261.17;;;1.39;86.58
76726;BME280;65651;53.154;17.916;2022-12-20T05:54:11;101258.84;;;1.40;86.78
76726;BME280;65651;53.154;17.916;2022-12-20T05:56:45;101257.12;;;1.39;86.70
76726;BME280;65651;53.154;17.916;2022-12-20T05:59:12;101255.33;;;1.39;86.67
76726;BME280;65651;53.154;17.916;2022-12-20T06:01:40;101260.72;;;1.38;86.51
76726;BME280;65651;53.154;17.916;2022-12-20T06:04:07;101253.77;;;1.39;86.54
76726;BME280;65651;53.154;17.916;2022-12-20T06:06:35;101254.48;;;1.39;86.57
76726;BME280;65651;53.154;17.916;2022-12-20T06:09:06;101256.90;;;1.40;86.61
76726;BME280;65651;53.154;17.916;2022-12-20T06:11:42;101261.11;;;1.40;86.52
76726;BME280;65651;53.154;17.916;2022-12-20T06:14:12;101260.16;;;1.42;86.53
76726;BME280;65651;53.154;17.916;2022-12-20T06:16:44;101259.56;;;1.44;86.56
76726;BME280;65651;53.154;17.916;2022-12-20T06:19:12;101264.82;;;1.44;86.29
76726;BME280;65651;53.154;17.916;2022-12-20T06:21:40;101256.31;;;1.45;86.37
76726;BME280;65651;53.154;17.916;2022-12-20T06:24:09;101261.38;;;1.46;86.39
76726;BME280;65651;53.154;17.916;2022-12-20T06:26:40;101260.88;;;1.46;86.38
76726;BME280;65651;53.154;17.916;2022-12-20T06:29:09;101259.97;;;1.46;86.28
76726;BME280;65651;53.154;17.916;2022-12-20T06:32:00;101265.95;;;1.47;86.37
76726;BME280;65651;53.154;17.916;2022-12-20T06:34:27;101265.90;;;1.48;86.48
76726;BME280;65651;53.154;17.916;2022-12-20T06:36:55;101268.83;;;1.50;86.27
76726;BME280;65651;53.154;17.916;2022-12-20T06:39:26;101267.73;;;1.50;86.27
76726;BME280;65651;53.154;17.916;2022-12-20T06:42:03;101270.28;;;1.52;86.26
76726;BME280;65651;53.154;17.916;2022-12-20T06:44:31;101273.27;;;1.53;86.14
76726;BME280;65651;53.154;17.916;2022-12-20T06:46:59;101274.66;;;1.53;86.26
76726;BME280;65651;53.154;17.916;2022-12-20T06:49:27;101278.71;;;1.54;86.24
76726;BME280;65651;53.154;17.916;2022-12-20T06:51:54;101278.64;;;1.55;86.17
76726;BME280;65651;53.154;17.916;2022-12-20T06:54:28;101279.88;;;1.55;86.20
76726;BME280;65651;53.154;17.916;2022-12-20T06:56:55;101281.45;;;1.56;86.19
76726;BME280;65651;53.154;17.916;2022-12-20T06:59:22;101277.48;;;1.57;86.03
76726;BME280;65651;53.154;17.916;2022-12-20T07:01:50;101280.22;;;1.59;86.25
76726;BME280;65651;53.154;17.916;2022-12-20T07:04:17;101280.53;;;1.60;86.02
76726;BME280;65651;53.154;17.916;2022-12-20T07:06:48;101283.63;;;1.62;86.08
76726;BME280;65651;53.154;17.916;2022-12-20T07:09:15;101284.64;;;1.63;86.07
76726;BME280;65651;53.154;17.916;2022-12-20T07:11:42;101283.33;;;1.65;85.92
76726;BME280;65651;53.154;17.916;2022-12-20T07:14:10;101292.96;;;1.67;85.73
76726;BME280;65651;53.154;17.916;2022-12-20T07:16:37;101296.05;;;1.69;85.92
76726;BME280;65651;53.154;17.916;2022-12-20T07:19:10;101297.39;;;1.70;85.96
76726;BME280;65651;53.154;17.916;2022-12-20T07:21:38;101294.86;;;1.72;85.83
76726;BME280;65651;53.154;17.916;2022-12-20T07:24:07;101297.90;;;1.75;85.82
76726;BME280;65651;53.154;17.916;2022-12-20T07:26:34;101300.64;;;1.76;85.64
76726;BME280;65651;53.154;17.916;2022-12-20T07:29:02;101305.88;;;1.78;85.76
76726;BME280;65651;53.154;17.916;2022-12-20T07:31:29;101317.54;;;1.79;85.85
76726;BME280;65651;53.154;17.916;2022-12-20T07:33:56;101316.83;;;1.79;85.78
76726;BME280;65651;53.154;17.916;2022-12-20T07:36:26;101317.16;;;1.79;85.60
76726;BME280;65651;53.154;17.916;2022-12-20T07:38:54;101314.08;;;1.80;85.73
76726;BME280;65651;53.154;17.916;2022-12-20T07:41:21;101309.95;;;1.81;85.74
76726;BME280;65651;53.154;17.916;2022-12-20T07:43:49;101301.25;;;1.82;85.40
76726;BME280;65651;53.154;17.916;2022-12-20T07:46:16;101298.81;;;1.81;85.66
76726;BME280;65651;53.154;17.916;2022-12-20T07:48:44;101296.84;;;1.82;85.49
76726;BME280;65651;53.154;17.916;2022-12-20T07:51:15;101295.87;;;1.83;85.56
76726;BME280;65651;53.154;17.916;2022-12-20T07:53:47;101295.11;;;1.85;85.69
76726;BME280;65651;53.154;17.916;2022-12-20T07:56:19;101303.11;;;1.88;85.59
76726;BME280;65651;53.154;17.916;2022-12-20T07:58:51;101304.08;;;1.89;85.37
76726;BME280;65651;53.154;17.916;2022-12-20T08:01:19;101302.33;;;1.89;85.34
76726;BME280;65651;53.154;17.916;2022-12-20T08:03:50;101299.91;;;1.88;85.42
76726;BME280;65651;53.154;17.916;2022-12-20T08:06:20;101298.77;;;1.89;85.28
76726;BME280;65651;53.154;17.916;2022-12-20T08:08:51;101298.42;;;1.89;85.51
76726;BME280;65651;53.154;17.916;2022-12-20T08:11:19;101305.63;;;1.91;85.28
76726;BME280;65651;53.154;17.916;2022-12-20T08:13:49;101307.29;;;1.93;85.28
76726;BME280;65651;53.154;17.916;2022-12-20T08:16:17;101308.70;;;1.93;85.21
76726;BME280;65651;53.154;17.916;2022-12-20T08:18:44;101311.45;;;1.95;85.48
76726;BME280;65651;53.154;17.916;2022-12-20T08:21:14;101310.42;;;1.98;85.02
76726;BME280;65651;53.154;17.916;2022-12-20T08:23:41;101302.38;;;1.99;85.06
76726;BME280;65651;53.154;17.916;2022-12-20T08:26:09;101300.77;;;2.03;85.14
76726;BME280;65651;53.154;17.916;2022-12-20T08:28:37;101303.23;;;2.07;85.33
76726;BME280;65651;53.154;17.916;2022-12-20T08:31:06;101301.06;;;2.12;85.25
76726;BME280;65651;53.154;17.916;2022-12-20T08:33:37;101307.27;;;2.15;85.49
76726;BME280;65651;53.154;17.916;2022-12-20T08:36:08;101308.23;;;2.17;85.18
76726;BME280;65651;53.154;17.916;2022-12-20T08:38:36;101304.85;;;2.21;85.19
76726;BME280;65651;53.154;17.916;2022-12-20T08:41:14;101306.09;;;2.28;85.16
76726;BME280;65651;53.154;17.916;2022-12-20T08:43:42;101302.39;;;2.35;84.84
76726;BME280;65651;53.154;17.916;2022-12-20T08:46:10;101289.80;;;2.39;84.49
76726;BME280;65651;53.154;17.916;2022-12-20T08:48:40;101286.58;;;2.42;84.93
76726;BME280;65651;53.154;17.916;2022-12-20T08:51:10;101285.18;;;2.46;84.46
76726;BME280;65651;53.154;17.916;2022-12-20T08:53:38;101283.91;;;2.50;84.29
76726;BME280;65651;53.154;17.916;2022-12-20T08:56:13;101279.45;;;2.57;84.46
76726;BME280;65651;53.154;17.916;2022-12-20T08:58:42;101271.31;;;2.64;84.40
76726;BME280;65651;53.154;17.916;2022-12-20T09:01:18;101270.52;;;2.73;84.41
76726;BME280;65651;53.154;17.916;2022-12-20T09:03:47;101268.85;;;2.81;84.30
76726;BME280;65651;53.154;17.916;2022-12-20T09:06:17;101265.02;;;2.90;84.36
76726;BME280;65651;53.154;17.916;2022-12-20T09:08:48;101265.45;;;3.02;83.88
76726;BME280;65651;53.154;17.916;2022-12-20T09:11:19;101267.90;;;3.12;83.82
76726;BME280;65651;53.154;17.916;2022-12-20T09:13:49;101275.77;;;3.24;84.04
76726;BME280;65651;53.154;17.916;2022-12-20T09:16:19;101277.30;;;3.32;83.98
76726;BME280;65651;53.154;17.916;2022-12-20T09:18:49;101284.30;;;3.30;83.61
76726;BME280;65651;53.154;17.916;2022-12-20T09:21:17;101281.14;;;3.27;83.55
76726;BME280;65651;53.154;17.916;2022-12-20T09:23:45;101283.52;;;3.25;83.40
76726;BME280;65651;53.154;17.916;2022-12-20T09:26:16;101279.48;;;3.25;83.38
76726;BME280;65651;53.154;17.916;2022-12-20T09:28:44;101282.05;;;3.22;83.12
76726;BME280;65651;53.154;17.916;2022-12-20T09:31:14;101279.96;;;3.18;83.09
76726;BME280;65651;53.154;17.916;2022-12-20T09:33:42;101282.80;;;3.15;82.83
76726;BME280;65651;53.154;17.916;2022-12-20T09:36:15;101274.34;;;3.18;83.16
76726;BME280;65651;53.154;17.916;2022-12-20T09:38:49;101277.62;;;3.22;83.21
76726;BME280;65651;53.154;17.916;2022-12-20T09:41:41;101276.59;;;3.22;83.06
76726;BME280;65651;53.154;17.916;2022-12-20T09:46:57;101268.23;;;3.19;82.88
76726;BME280;65651;53.154;17.916;2022-12-20T09:49:30;101267.33;;;3.16;82.69
76726;BME280;65651;53.154;17.916;2022-12-20T09:53:12;101261.24;;;3.14;82.83
76726;BME280;65651;53.154;17.916;2022-12-20T09:55:45;101255.95;;;3.14;83.07
76726;BME280;65651;53.154;17.916;2022-12-20T10:01:33;101249.59;;;3.10;82.75
76726;BME280;65651;53.154;17.916;2022-12-20T10:04:09;101244.65;;;3.12;82.79
76726;BME280;65651;53.154;17.916;2022-12-20T10:15:24;101253.13;;;3.13;82.73
76726;BME280;65651;53.154;17.916;2022-12-20T10:23:14;101232.24;;;3.22;82.69
76726;BME280;65651;53.154;17.916;2022-12-20T10:25:46;101237.37;;;3.26;82.32
76726;BME280;65651;53.154;17.916;2022-12-20T10:28:15;101227.81;;;3.28;82.26
76726;BME280;65651;53.154;17.916;2022-12-20T10:30:43;101227.39;;;3.36;82.17
76726;BME280;65651;53.154;17.916;2022-12-20T10:33:17;101239.04;;;3.43;82.27
76726;BME280;65651;53.154;17.916;2022-12-20T10:35:47;101243.52;;;3.49;82.52
76726;BME280;65651;53.154;17.916;2022-12-20T10:38:15;101240.96;;;3.54;82.21
76726;BME280;65651;53.154;17.916;2022-12-20T10:43:26;101235.39;;;3.55;81.88
76726;BME280;65651;53.154;17.916;2022-12-20T10:46:06;101228.52;;;3.58;81.66
76726;BME280;65651;53.154;17.916;2022-12-20T10:48:40;101227.90;;;3.62;81.98
76726;BME280;65651;53.154;17.916;2022-12-20T10:54:01;101226.77;;;3.66;81.74
76726;BME280;65651;53.154;17.916;2022-12-20T10:56:34;101227.48;;;3.66;81.40
76726;BME280;65651;53.154;17.916;2022-12-20T11:01:46;101222.02;;;3.62;81.24
76726;BME280;65651;53.154;17.916;2022-12-20T11:04:32;101213.41;;;3.57;81.52
76726;BME280;65651;53.154;17.916;2022-12-20T11:07:21;101212.77;;;3.53;81.44
76726;BME280;65651;53.154;17.916;2022-12-20T11:12:54;101211.64;;;3.45;81.52
76726;BME280;65651;53.154;17.916;2022-12-20T11:15:26;101209.38;;;3.44;81.51
76726;BME280;65651;53.154;17.916;2022-12-20T11:18:14;101207.95;;;3.47;81.72
76726;BME280;65651;53.154;17.916;2022-12-20T11:20:47;101214.15;;;3.47;81.71
76726;BME280;65651;53.154;17.916;2022-12-20T11:26:30;101215.02;;;3.41;81.52
76726;BME280;65651;53.154;17.916;2022-12-20T11:41:07;101216.65;;;3.18;82.14
76726;BME280;65651;53.154;17.916;2022-12-20T11:46:52;101202.32;;;3.08;82.14
76726;BME280;65651;53.154;17.916;2022-12-20T11:54:52;101200.35;;;2.99;82.35
76726;BME280;65651;53.154;17.916;2022-12-20T11:57:28;101199.27;;;2.96;82.39
76726;BME280;65651;53.154;17.916;2022-12-20T12:00:03;101187.99;;;2.94;82.39
76726;BME280;65651;53.154;17.916;2022-12-20T12:05:46;101185.10;;;2.92;82.28
76726;BME280;65651;53.154;17.916;2022-12-20T12:08:42;101181.09;;;2.91;82.63
76726;BME280;65651;53.154;17.916;2022-12-20T12:11:17;101171.25;;;2.89;82.46
76726;BME280;65651;53.154;17.916;2022-12-20T12:13:48;101174.64;;;2.89;82.61
76726;BME280;65651;53.154;17.916;2022-12-20T12:16:23;101179.42;;;2.92;82.70
76726;BME280;65651;53.154;17.916;2022-12-20T12:18:58;101172.97;;;3.00;82.59
76726;BME280;65651;53.154;17.916;2022-12-20T12:21:37;101174.25;;;3.09;82.52
76726;BME280;65651;53.154;17.916;2022-12-20T12:26:47;101172.93;;;3.14;82.45
76726;BME280;65651;53.154;17.916;2022-12-20T12:29:17;101167.60;;;3.10;82.64
76726;BME280;65651;53.154;17.916;2022-12-20T12:31:55;101160.77;;;3.06;82.65
76726;BME280;65651;53.154;17.916;2022-12-20T12:34:39;101160.16;;;3.01;82.29
76726;BME280;65651;53.154;17.916;2022-12-20T12:40:44;101162.00;;;2.93;82.67
76726;BME280;65651;53.154;17.916;2022-12-20T12:46:31;101154.45;;;2.88;82.35
76726;BME280;65651;53.154;17.916;2022-12-20T12:51:38;101149.84;;;2.92;82.42
76726;BME280;65651;53.154;17.916;2022-12-20T12:56:53;101146.02;;;2.97;82.12
76726;BME280;65651;53.154;17.916;2022-12-20T13:04:54;101139.21;;;2.98;82.13
76726;BME280;65651;53.154;17.916;2022-12-20T13:10:00;101129.82;;;2.98;81.98
76726;BME280;65651;53.154;17.916;2022-12-20T13:17:56;101112.64;;;2.94;81.99
76726;BME280;65651;53.154;17.916;2022-12-20T13:20:26;101112.24;;;2.92;82.03
76726;BME280;65651;53.154;17.916;2022-12-20T13:25:39;101117.88;;;2.89;81.90
76726;BME280;65651;53.154;17.916;2022-12-20T13:30:46;101122.16;;;2.92;81.83
76726;BME280;65651;53.154;17.916;2022-12-20T13:35:58;101123.66;;;2.93;81.53
76726;BME280;65651;53.154;17.916;2022-12-20T13:46:53;101129.31;;;2.94;81.81
76726;BME280;65651;53.154;17.916;2022-12-20T13:49:35;101123.85;;;2.93;81.86
76726;BME280;65651;53.154;17.916;2022-12-20T13:52:26;101117.61;;;2.94;81.93
76726;BME280;65651;53.154;17.916;2022-12-20T13:54:58;101111.80;;;2.93;81.89
76726;BME280;65651;53.154;17.916;2022-12-20T13:57:33;101108.25;;;2.93;81.64
76726;BME280;65651;53.154;17.916;2022-12-20T14:00:22;101107.33;;;2.94;81.94
76726;BME280;65651;53.154;17.916;2022-12-20T14:02:53;101099.86;;;2.94;81.68
76726;BME280;65651;53.154;17.916;2022-12-20T14:05:31;101104.60;;;2.95;82.19
76726;BME280;65651;53.154;17.916;2022-12-20T14:08:14;101103.23;;;2.94;81.62
76726;BME280;65651;53.154;17.916;2022-12-20T14:10:42;101104.66;;;2.94;81.84
76726;BME280;65651;53.154;17.916;2022-12-20T14:13:23;101111.55;;;2.94;81.84
76726;BME280;65651;53.154;17.916;2022-12-20T14:15:52;101106.45;;;2.93;81.95
76726;BME280;65651;53.154;17.916;2022-12-20T14:18:24;101103.09;;;2.93;81.66
76726;BME280;65651;53.154;17.916;2022-12-20T14:21:00;101104.02;;;2.92;82.01
76726;BME280;65651;53.154;17.916;2022-12-20T14:23:42;101099.41;;;2.93;82.00
76726;BME280;65651;53.154;17.916;2022-12-20T14:26:15;101092.43;;;2.94;81.94
76726;BME280;65651;53.154;17.916;2022-12-20T14:28:44;101095.96;;;2.94;81.66
76726;BME280;65651;53.154;17.916;2022-12-20T14:36:45;101093.98;;;2.92;81.81
76726;BME280;65651;53.154;17.916;2022-12-20T14:39:26;101091.71;;;2.91;81.76
76726;BME280;65651;53.154;17.916;2022-12-20T14:42:02;101091.36;;;2.91;81.87
76726;BME280;65651;53.154;17.916;2022-12-20T14:44:39;101089.60;;;2.91;81.63
76726;BME280;65651;53.154;17.916;2022-12-20T14:47:20;101082.84;;;2.91;81.55
76726;BME280;65651;53.154;17.916;2022-12-20T14:49:57;101086.52;;;2.92;81.81
76726;BME280;65651;53.154;17.916;2022-12-20T14:52:37;101077.94;;;2.90;81.95
76726;BME280;65651;53.154;17.916;2022-12-20T14:55:06;101065.91;;;2.89;81.92
76726;BME280;65651;53.154;17.916;2022-12-20T14:57:50;101071.01;;;2.90;81.52
76726;BME280;65651;53.154;17.916;2022-12-20T15:00:29;101077.21;;;2.91;81.70
76726;BME280;65651;53.154;17.916;2022-12-20T15:03:13;101083.43;;;2.90;81.63
76726;BME280;65651;53.154;17.916;2022-12-20T15:05:49;101079.43;;;2.92;81.52
76726;BME280;65651;53.154;17.916;2022-12-20T15:08:27;101082.02;;;2.93;81.81
76726;BME280;65651;53.154;17.916;2022-12-20T15:13:30;101098.34;;;2.96;81.45
76726;BME280;65651;53.154;17.916;2022-12-20T15:16:00;101088.21;;;2.97;81.64
76726;BME280;65651;53.154;17.916;2022-12-20T15:18:28;101067.81;;;2.97;81.89
76726;BME280;65651;53.154;17.916;2022-12-20T15:23:47;101057.55;;;3.00;81.74
76726;BME280;65651;53.154;17.916;2022-12-20T15:26:17;101064.45;;;3.00;81.54
76726;BME280;65651;53.154;17.916;2022-12-20T15:28:45;101063.23;;;3.00;81.47
76726;BME280;65651;53.154;17.916;2022-12-20T15:31:15;101066.10;;;2.99;81.84
76726;BME280;65651;53.154;17.916;2022-12-20T15:33:44;101061.98;;;2.97;81.69